Salt Lake City, Utah
Traffic Map
Current Weather Conditions
Salt Lake City, Utah
Broken Clouds
Broken Clouds
100°
Feels Like: 100°
Wind Chill: 100° Ceiling: 11000
Heat Index: 100° Visibility: 10mi
Dew Point: 36° Wind: 7mph
Humidity: 11% Direction: 270° (W)
Pressure: 29.97in Gusts: 0mph
Raw Report DataKSLC 232253Z 27006KT 10SM SCT085TCU BKN110 BKN150 38/02 A2997 RMK AO2 WSHFT 2229 LTG DSNT NE SLP082 CB DSNT NE TCU E AND DSNT S-SW T03780022
Traffic Incident Summary
Active as of:
Severity:
Category:
InformationThere was an issue retrieving the traffic information for this location. Please try a different location or try again shortly.
Advertisements
Track Severe Weather on mobile